sensor_id;sensor_type;location;lat;lon;timestamp;P1;durP1;ratioP1;P2;durP2;ratioP2
56102;SDS011;41970;48.774;9.280;2023-07-20T00:00:28;3.40;;;2.77;;
56102;SDS011;41970;48.774;9.280;2023-07-20T00:03:09;4.10;;;2.63;;
56102;SDS011;41970;48.774;9.280;2023-07-20T00:05:41;6.30;;;2.77;;
56102;SDS011;41970;48.774;9.280;2023-07-20T00:08:13;3.00;;;2.30;;
56102;SDS011;41970;48.774;9.280;2023-07-20T00:10:40;3.00;;;2.70;;
56102;SDS011;41970;48.774;9.280;2023-07-20T00:13:06;2.90;;;2.60;;
56102;SDS011;41970;48.774;9.280;2023-07-20T00:15:32;3.30;;;2.23;;
56102;SDS011;41970;48.774;9.280;2023-07-20T00:17:58;5.03;;;2.37;;
56102;SDS011;41970;48.774;9.280;2023-07-20T00:20:24;4.20;;;2.40;;
56102;SDS011;41970;48.774;9.280;2023-07-20T00:22:50;3.20;;;2.30;;
56102;SDS011;41970;48.774;9.280;2023-07-20T00:25:17;2.87;;;2.50;;
56102;SDS011;41970;48.774;9.280;2023-07-20T00:27:43;4.63;;;3.07;;
56102;SDS011;41970;48.774;9.280;2023-07-20T00:30:09;5.80;;;2.60;;
56102;SDS011;41970;48.774;9.280;2023-07-20T00:32:37;3.13;;;2.43;;
56102;SDS011;41970;48.774;9.280;2023-07-20T00:35:04;4.43;;;2.47;;
56102;SDS011;41970;48.774;9.280;2023-07-20T00:37:30;4.50;;;2.80;;
56102;SDS011;41970;48.774;9.280;2023-07-20T00:39:56;2.57;;;2.23;;
56102;SDS011;41970;48.774;9.280;2023-07-20T00:42:22;2.67;;;2.23;;
56102;SDS011;41970;48.774;9.280;2023-07-20T00:44:47;2.93;;;1.93;;
56102;SDS011;41970;48.774;9.280;2023-07-20T00:47:13;2.40;;;2.10;;
56102;SDS011;41970;48.774;9.280;2023-07-20T00:49:39;3.50;;;2.70;;
56102;SDS011;41970;48.774;9.280;2023-07-20T00:52:06;2.63;;;2.00;;
56102;SDS011;41970;48.774;9.280;2023-07-20T00:54:32;4.00;;;2.40;;
56102;SDS011;41970;48.774;9.280;2023-07-20T00:56:59;3.70;;;2.23;;
56102;SDS011;41970;48.774;9.280;2023-07-20T00:59:26;4.17;;;2.40;;
56102;SDS011;41970;48.774;9.280;2023-07-20T01:01:52;2.57;;;2.27;;
56102;SDS011;41970;48.774;9.280;2023-07-20T01:04:18;2.13;;;1.87;;
56102;SDS011;41970;48.774;9.280;2023-07-20T01:09:33;2.83;;;2.53;;
56102;SDS011;41970;48.774;9.280;2023-07-20T01:12:02;2.33;;;2.10;;
56102;SDS011;41970;48.774;9.280;2023-07-20T01:14:35;3.60;;;2.10;;
56102;SDS011;41970;48.774;9.280;2023-07-20T01:17:02;2.37;;;2.17;;
56102;SDS011;41970;48.774;9.280;2023-07-20T01:19:27;2.20;;;2.00;;
56102;SDS011;41970;48.774;9.280;2023-07-20T01:21:55;2.63;;;2.43;;
56102;SDS011;41970;48.774;9.280;2023-07-20T01:27:20;3.70;;;2.40;;
56102;SDS011;41970;48.774;9.280;2023-07-20T01:30:16;2.70;;;2.00;;
56102;SDS011;41970;48.774;9.280;2023-07-20T01:32:47;3.90;;;2.00;;
56102;SDS011;41970;48.774;9.280;2023-07-20T01:35:14;2.33;;;2.07;;
56102;SDS011;41970;48.774;9.280;2023-07-20T01:37:43;4.53;;;3.23;;
56102;SDS011;41970;48.774;9.280;2023-07-20T01:40:11;2.57;;;2.10;;
56102;SDS011;41970;48.774;9.280;2023-07-20T01:42:43;4.60;;;2.13;;
56102;SDS011;41970;48.774;9.280;2023-07-20T01:45:12;3.67;;;2.00;;
56102;SDS011;41970;48.774;9.280;2023-07-20T01:47:38;2.40;;;2.20;;
56102;SDS011;41970;48.774;9.280;2023-07-20T01:50:04;2.87;;;2.17;;
56102;SDS011;41970;48.774;9.280;2023-07-20T01:52:30;2.90;;;1.90;;
56102;SDS011;41970;48.774;9.280;2023-07-20T01:54:56;3.37;;;2.63;;
56102;SDS011;41970;48.774;9.280;2023-07-20T01:57:22;3.40;;;2.37;;
56102;SDS011;41970;48.774;9.280;2023-07-20T01:59:47;2.90;;;2.10;;
56102;SDS011;41970;48.774;9.280;2023-07-20T02:02:13;2.90;;;2.70;;
56102;SDS011;41970;48.774;9.280;2023-07-20T02:04:39;2.47;;;2.23;;
56102;SDS011;41970;48.774;9.280;2023-07-20T02:07:05;4.40;;;2.00;;
56102;SDS011;41970;48.774;9.280;2023-07-20T02:09:30;3.20;;;2.47;;
56102;SDS011;41970;48.774;9.280;2023-07-20T02:11:56;5.23;;;2.33;;
56102;SDS011;41970;48.774;9.280;2023-07-20T02:14:22;3.17;;;2.13;;
56102;SDS011;41970;48.774;9.280;2023-07-20T02:16:48;3.63;;;2.67;;
56102;SDS011;41970;48.774;9.280;2023-07-20T02:19:20;2.80;;;2.53;;
56102;SDS011;41970;48.774;9.280;2023-07-20T02:21:46;2.40;;;2.20;;
56102;SDS011;41970;48.774;9.280;2023-07-20T02:24:12;3.60;;;2.27;;
56102;SDS011;41970;48.774;9.280;2023-07-20T02:26:38;4.97;;;2.90;;
56102;SDS011;41970;48.774;9.280;2023-07-20T02:29:04;3.47;;;2.60;;
56102;SDS011;41970;48.774;9.280;2023-07-20T02:31:31;2.73;;;2.33;;
56102;SDS011;41970;48.774;9.280;2023-07-20T02:33:57;2.50;;;2.30;;
56102;SDS011;41970;48.774;9.280;2023-07-20T02:36:22;3.17;;;2.87;;
56102;SDS011;41970;48.774;9.280;2023-07-20T02:38:48;4.80;;;2.20;;
56102;SDS011;41970;48.774;9.280;2023-07-20T02:41:14;3.80;;;2.80;;
56102;SDS011;41970;48.774;9.280;2023-07-20T02:43:39;4.10;;;2.50;;
56102;SDS011;41970;48.774;9.280;2023-07-20T02:46:05;6.40;;;2.63;;
56102;SDS011;41970;48.774;9.280;2023-07-20T02:48:31;4.10;;;2.80;;
56102;SDS011;41970;48.774;9.280;2023-07-20T02:50:57;3.40;;;2.50;;
56102;SDS011;41970;48.774;9.280;2023-07-20T02:53:22;2.67;;;2.27;;
56102;SDS011;41970;48.774;9.280;2023-07-20T02:55:48;3.17;;;2.87;;
56102;SDS011;41970;48.774;9.280;2023-07-20T02:58:14;5.50;;;2.37;;
56102;SDS011;41970;48.774;9.280;2023-07-20T03:00:41;3.80;;;2.20;;
56102;SDS011;41970;48.774;9.280;2023-07-20T03:03:09;2.50;;;2.30;;
56102;SDS011;41970;48.774;9.280;2023-07-20T03:05:35;5.70;;;3.50;;
56102;SDS011;41970;48.774;9.280;2023-07-20T03:08:03;4.10;;;2.87;;
56102;SDS011;41970;48.774;9.280;2023-07-20T03:10:31;2.90;;;2.50;;
56102;SDS011;41970;48.774;9.280;2023-07-20T03:12:57;2.97;;;2.60;;
56102;SDS011;41970;48.774;9.280;2023-07-20T03:15:23;4.00;;;2.57;;
56102;SDS011;41970;48.774;9.280;2023-07-20T03:17:49;3.70;;;2.63;;
56102;SDS011;41970;48.774;9.280;2023-07-20T03:20:16;2.70;;;2.50;;
56102;SDS011;41970;48.774;9.280;2023-07-20T03:22:42;4.53;;;3.20;;
56102;SDS011;41970;48.774;9.280;2023-07-20T03:25:08;6.20;;;2.60;;
56102;SDS011;41970;48.774;9.280;2023-07-20T03:27:34;3.60;;;3.10;;
56102;SDS011;41970;48.774;9.280;2023-07-20T03:29:59;5.83;;;2.50;;
56102;SDS011;41970;48.774;9.280;2023-07-20T03:32:25;4.23;;;2.90;;
56102;SDS011;41970;48.774;9.280;2023-07-20T03:34:51;3.90;;;2.90;;
56102;SDS011;41970;48.774;9.280;2023-07-20T03:37:17;3.13;;;2.83;;
56102;SDS011;41970;48.774;9.280;2023-07-20T03:39:43;3.50;;;2.70;;
56102;SDS011;41970;48.774;9.280;2023-07-20T03:42:08;3.63;;;2.23;;
56102;SDS011;41970;48.774;9.280;2023-07-20T03:44:34;3.10;;;2.63;;
56102;SDS011;41970;48.774;9.280;2023-07-20T03:47:00;3.03;;;2.27;;
56102;SDS011;41970;48.774;9.280;2023-07-20T03:49:26;4.03;;;3.63;;
56102;SDS011;41970;48.774;9.280;2023-07-20T03:51:51;3.20;;;2.73;;
56102;SDS011;41970;48.774;9.280;2023-07-20T03:54:18;2.80;;;2.33;;
56102;SDS011;41970;48.774;9.280;2023-07-20T03:56:44;3.30;;;2.50;;
56102;SDS011;41970;48.774;9.280;2023-07-20T03:59:09;2.50;;;2.10;;
56102;SDS011;41970;48.774;9.280;2023-07-20T04:01:35;3.63;;;3.20;;
56102;SDS011;41970;48.774;9.280;2023-07-20T04:04:01;3.20;;;2.63;;
56102;SDS011;41970;48.774;9.280;2023-07-20T04:06:31;3.70;;;2.60;;
56102;SDS011;41970;48.774;9.280;2023-07-20T04:08:57;4.90;;;2.93;;
56102;SDS011;41970;48.774;9.280;2023-07-20T04:11:22;3.13;;;2.83;;
56102;SDS011;41970;48.774;9.280;2023-07-20T04:13:48;5.43;;;2.57;;
56102;SDS011;41970;48.774;9.280;2023-07-20T04:16:14;2.90;;;2.50;;
56102;SDS011;41970;48.774;9.280;2023-07-20T04:18:40;3.47;;;2.63;;
56102;SDS011;41970;48.774;9.280;2023-07-20T04:21:07;2.77;;;2.33;;
56102;SDS011;41970;48.774;9.280;2023-07-20T04:23:34;3.73;;;2.63;;
56102;SDS011;41970;48.774;9.280;2023-07-20T04:26:01;4.60;;;2.87;;
56102;SDS011;41970;48.774;9.280;2023-07-20T04:28:27;3.10;;;2.80;;
56102;SDS011;41970;48.774;9.280;2023-07-20T04:30:52;4.47;;;2.90;;
56102;SDS011;41970;48.774;9.280;2023-07-20T04:33:18;3.83;;;2.50;;
56102;SDS011;41970;48.774;9.280;2023-07-20T04:35:51;5.70;;;3.07;;
56102;SDS011;41970;48.774;9.280;2023-07-20T04:38:18;3.70;;;2.50;;
56102;SDS011;41970;48.774;9.280;2023-07-20T04:40:45;4.50;;;2.67;;
56102;SDS011;41970;48.774;9.280;2023-07-20T04:43:11;2.90;;;2.50;;
56102;SDS011;41970;48.774;9.280;2023-07-20T04:45:39;4.10;;;2.63;;
56102;SDS011;41970;48.774;9.280;2023-07-20T04:48:06;4.00;;;3.13;;
56102;SDS011;41970;48.774;9.280;2023-07-20T04:50:41;3.77;;;3.13;;
56102;SDS011;41970;48.774;9.280;2023-07-20T04:53:10;3.30;;;2.67;;
56102;SDS011;41970;48.774;9.280;2023-07-20T04:55:37;4.13;;;3.00;;
56102;SDS011;41970;48.774;9.280;2023-07-20T04:58:04;3.33;;;3.00;;
56102;SDS011;41970;48.774;9.280;2023-07-20T05:00:31;9.50;;;3.03;;
56102;SDS011;41970;48.774;9.280;2023-07-20T05:03:00;7.17;;;2.90;;
56102;SDS011;41970;48.774;9.280;2023-07-20T05:05:26;4.73;;;2.93;;
56102;SDS011;41970;48.774;9.280;2023-07-20T05:07:53;4.53;;;2.43;;
56102;SDS011;41970;48.774;9.280;2023-07-20T05:10:19;5.00;;;2.30;;
56102;SDS011;41970;48.774;9.280;2023-07-20T05:12:45;4.00;;;2.33;;
56102;SDS011;41970;48.774;9.280;2023-07-20T05:15:11;4.17;;;2.87;;
56102;SDS011;41970;48.774;9.280;2023-07-20T05:17:36;3.03;;;2.50;;
56102;SDS011;41970;48.774;9.280;2023-07-20T05:20:02;2.90;;;2.60;;
56102;SDS011;41970;48.774;9.280;2023-07-20T05:22:29;5.03;;;3.43;;
56102;SDS011;41970;48.774;9.280;2023-07-20T05:24:55;4.60;;;2.53;;
56102;SDS011;41970;48.774;9.280;2023-07-20T05:27:21;4.57;;;3.20;;
56102;SDS011;41970;48.774;9.280;2023-07-20T05:29:47;2.80;;;2.60;;
56102;SDS011;41970;48.774;9.280;2023-07-20T05:32:13;2.83;;;2.57;;
56102;SDS011;41970;48.774;9.280;2023-07-20T05:34:40;4.20;;;2.60;;
56102;SDS011;41970;48.774;9.280;2023-07-20T05:37:06;4.10;;;2.60;;
56102;SDS011;41970;48.774;9.280;2023-07-20T05:39:34;3.10;;;2.30;;
56102;SDS011;41970;48.774;9.280;2023-07-20T05:42:00;4.33;;;2.60;;
56102;SDS011;41970;48.774;9.280;2023-07-20T05:44:26;3.43;;;2.40;;
56102;SDS011;41970;48.774;9.280;2023-07-20T05:46:52;5.10;;;2.83;;
56102;SDS011;41970;48.774;9.280;2023-07-20T05:49:17;3.90;;;2.80;;
56102;SDS011;41970;48.774;9.280;2023-07-20T05:51:43;3.60;;;2.37;;
56102;SDS011;41970;48.774;9.280;2023-07-20T05:54:09;3.70;;;2.40;;
56102;SDS011;41970;48.774;9.280;2023-07-20T05:56:35;4.70;;;3.03;;
56102;SDS011;41970;48.774;9.280;2023-07-20T05:59:01;3.33;;;2.87;;
56102;SDS011;41970;48.774;9.280;2023-07-20T06:01:27;2.83;;;2.20;;
56102;SDS011;41970;48.774;9.280;2023-07-20T06:03:53;6.40;;;2.77;;
56102;SDS011;41970;48.774;9.280;2023-07-20T06:06:19;2.50;;;2.30;;
56102;SDS011;41970;48.774;9.280;2023-07-20T06:08:45;3.97;;;2.90;;
56102;SDS011;41970;48.774;9.280;2023-07-20T06:11:11;4.17;;;2.60;;
56102;SDS011;41970;48.774;9.280;2023-07-20T06:13:37;4.57;;;2.50;;
56102;SDS011;41970;48.774;9.280;2023-07-20T06:16:03;4.20;;;2.20;;
56102;SDS011;41970;48.774;9.280;2023-07-20T06:18:29;4.50;;;2.80;;
56102;SDS011;41970;48.774;9.280;2023-07-20T06:20:57;3.93;;;2.37;;
56102;SDS011;41970;48.774;9.280;2023-07-20T06:23:23;3.90;;;3.20;;
56102;SDS011;41970;48.774;9.280;2023-07-20T06:25:49;4.37;;;2.67;;
56102;SDS011;41970;48.774;9.280;2023-07-20T06:28:15;3.67;;;3.37;;
56102;SDS011;41970;48.774;9.280;2023-07-20T06:30:41;2.87;;;2.10;;
56102;SDS011;41970;48.774;9.280;2023-07-20T06:33:07;4.67;;;2.23;;
56102;SDS011;41970;48.774;9.280;2023-07-20T06:35:33;3.80;;;2.40;;
56102;SDS011;41970;48.774;9.280;2023-07-20T06:38:00;4.57;;;2.77;;
56102;SDS011;41970;48.774;9.280;2023-07-20T06:40:26;2.57;;;2.03;;
56102;SDS011;41970;48.774;9.280;2023-07-20T06:42:51;2.53;;;2.20;;
56102;SDS011;41970;48.774;9.280;2023-07-20T06:45:17;2.40;;;2.07;;
56102;SDS011;41970;48.774;9.280;2023-07-20T06:47:43;4.57;;;2.40;;
56102;SDS011;41970;48.774;9.280;2023-07-20T06:50:09;3.33;;;2.20;;
56102;SDS011;41970;48.774;9.280;2023-07-20T06:52:36;5.73;;;2.67;;
56102;SDS011;41970;48.774;9.280;2023-07-20T06:55:02;5.13;;;2.60;;
56102;SDS011;41970;48.774;9.280;2023-07-20T06:57:28;3.60;;;2.43;;
56102;SDS011;41970;48.774;9.280;2023-07-20T06:59:54;1.97;;;1.80;;
56102;SDS011;41970;48.774;9.280;2023-07-20T07:02:19;2.93;;;2.40;;
56102;SDS011;41970;48.774;9.280;2023-07-20T07:04:45;3.20;;;2.27;;
56102;SDS011;41970;48.774;9.280;2023-07-20T07:07:13;5.23;;;2.27;;
56102;SDS011;41970;48.774;9.280;2023-07-20T07:09:40;3.07;;;2.23;;
56102;SDS011;41970;48.774;9.280;2023-07-20T07:12:06;3.40;;;2.10;;
56102;SDS011;41970;48.774;9.280;2023-07-20T07:14:32;2.80;;;2.00;;
56102;SDS011;41970;48.774;9.280;2023-07-20T07:16:58;4.33;;;2.50;;
56102;SDS011;41970;48.774;9.280;2023-07-20T07:19:24;2.73;;;2.50;;
56102;SDS011;41970;48.774;9.280;2023-07-20T07:21:50;3.57;;;2.20;;
56102;SDS011;41970;48.774;9.280;2023-07-20T07:24:16;3.50;;;2.13;;
56102;SDS011;41970;48.774;9.280;2023-07-20T07:26:42;3.23;;;2.40;;
56102;SDS011;41970;48.774;9.280;2023-07-20T07:29:07;2.53;;;2.10;;
56102;SDS011;41970;48.774;9.280;2023-07-20T07:31:36;6.47;;;2.50;;
56102;SDS011;41970;48.774;9.280;2023-07-20T07:34:03;2.77;;;2.40;;
56102;SDS011;41970;48.774;9.280;2023-07-20T07:36:30;3.53;;;2.30;;
56102;SDS011;41970;48.774;9.280;2023-07-20T07:38:56;6.07;;;2.37;;
56102;SDS011;41970;48.774;9.280;2023-07-20T07:41:22;3.50;;;2.17;;
56102;SDS011;41970;48.774;9.280;2023-07-20T07:43:48;3.77;;;2.30;;
56102;SDS011;41970;48.774;9.280;2023-07-20T07:46:14;2.70;;;2.30;;
56102;SDS011;41970;48.774;9.280;2023-07-20T07:48:40;3.33;;;2.60;;
56102;SDS011;41970;48.774;9.280;2023-07-20T07:51:07;3.53;;;2.80;;
56102;SDS011;41970;48.774;9.280;2023-07-20T07:53:32;6.43;;;3.17;;
56102;SDS011;41970;48.774;9.280;2023-07-20T07:56:00;3.40;;;2.80;;
56102;SDS011;41970;48.774;9.280;2023-07-20T07:58:28;2.30;;;2.10;;
56102;SDS011;41970;48.774;9.280;2023-07-20T08:00:54;2.40;;;2.20;;
56102;SDS011;41970;48.774;9.280;2023-07-20T08:03:19;3.73;;;2.73;;
56102;SDS011;41970;48.774;9.280;2023-07-20T08:05:46;3.30;;;2.07;;
56102;SDS011;41970;48.774;9.280;2023-07-20T08:08:12;2.40;;;2.20;;
56102;SDS011;41970;48.774;9.280;2023-07-20T08:10:38;3.80;;;2.10;;
56102;SDS011;41970;48.774;9.280;2023-07-20T08:13:03;3.57;;;2.67;;
56102;SDS011;41970;48.774;9.280;2023-07-20T08:15:29;3.63;;;2.47;;
56102;SDS011;41970;48.774;9.280;2023-07-20T08:17:55;3.30;;;2.10;;
56102;SDS011;41970;48.774;9.280;2023-07-20T08:20:21;3.00;;;2.43;;
56102;SDS011;41970;48.774;9.280;2023-07-20T08:22:51;2.50;;;2.30;;
56102;SDS011;41970;48.774;9.280;2023-07-20T08:25:19;2.50;;;2.20;;
56102;SDS011;41970;48.774;9.280;2023-07-20T08:27:45;7.80;;;2.90;;
56102;SDS011;41970;48.774;9.280;2023-07-20T08:30:12;5.83;;;2.23;;
56102;SDS011;41970;48.774;9.280;2023-07-20T08:32:38;4.30;;;2.10;;
56102;SDS011;41970;48.774;9.280;2023-07-20T08:35:04;4.50;;;2.37;;
56102;SDS011;41970;48.774;9.280;2023-07-20T08:37:31;3.90;;;2.23;;
56102;SDS011;41970;48.774;9.280;2023-07-20T08:39:57;5.43;;;2.20;;
56102;SDS011;41970;48.774;9.280;2023-07-20T08:42:22;3.00;;;2.07;;
56102;SDS011;41970;48.774;9.280;2023-07-20T08:44:48;2.87;;;2.20;;
56102;SDS011;41970;48.774;9.280;2023-07-20T08:47:17;4.00;;;2.20;;
56102;SDS011;41970;48.774;9.280;2023-07-20T08:49:47;3.40;;;2.23;;
56102;SDS011;41970;48.774;9.280;2023-07-20T08:52:14;3.73;;;2.20;;
56102;SDS011;41970;48.774;9.280;2023-07-20T08:54:40;4.73;;;2.50;;
56102;SDS011;41970;48.774;9.280;2023-07-20T08:57:06;4.07;;;2.27;;
56102;SDS011;41970;48.774;9.280;2023-07-20T08:59:32;2.50;;;2.10;;
56102;SDS011;41970;48.774;9.280;2023-07-20T09:02:02;6.53;;;2.63;;
56102;SDS011;41970;48.774;9.280;2023-07-20T09:04:29;2.20;;;2.00;;
56102;SDS011;41970;48.774;9.280;2023-07-20T09:06:55;2.53;;;2.33;;
56102;SDS011;41970;48.774;9.280;2023-07-20T09:09:22;2.40;;;2.20;;
56102;SDS011;41970;48.774;9.280;2023-07-20T09:11:51;5.17;;;2.40;;
56102;SDS011;41970;48.774;9.280;2023-07-20T09:14:17;3.20;;;2.57;;
56102;SDS011;41970;48.774;9.280;2023-07-20T09:19:16;2.50;;;2.30;;
56102;SDS011;41970;48.774;9.280;2023-07-20T09:21:46;2.27;;;1.90;;
56102;SDS011;41970;48.774;9.280;2023-07-20T09:24:13;4.40;;;2.00;;
56102;SDS011;41970;48.774;9.280;2023-07-20T09:26:42;2.83;;;2.47;;
56102;SDS011;41970;48.774;9.280;2023-07-20T09:29:09;6.17;;;1.63;;
56102;SDS011;41970;48.774;9.280;2023-07-20T09:31:36;5.80;;;2.30;;
56102;SDS011;41970;48.774;9.280;2023-07-20T09:34:02;3.03;;;2.10;;
56102;SDS011;41970;48.774;9.280;2023-07-20T09:36:31;3.63;;;2.03;;
56102;SDS011;41970;48.774;9.280;2023-07-20T09:39:02;2.50;;;2.30;;
56102;SDS011;41970;48.774;9.280;2023-07-20T09:41:29;3.70;;;1.87;;
56102;SDS011;41970;48.774;9.280;2023-07-20T09:43:55;2.13;;;1.93;;
56102;SDS011;41970;48.774;9.280;2023-07-20T09:46:21;2.10;;;1.80;;
56102;SDS011;41970;48.774;9.280;2023-07-20T09:48:53;2.20;;;2.00;;
56102;SDS011;41970;48.774;9.280;2023-07-20T09:51:21;2.67;;;2.47;;
56102;SDS011;41970;48.774;9.280;2023-07-20T09:53:48;2.30;;;2.10;;
56102;SDS011;41970;48.774;9.280;2023-07-20T09:56:17;2.53;;;2.20;;
56102;SDS011;41970;48.774;9.280;2023-07-20T09:58:48;2.73;;;2.10;;
56102;SDS011;41970;48.774;9.280;2023-07-20T10:01:15;3.77;;;1.90;;
56102;SDS011;41970;48.774;9.280;2023-07-20T10:03:46;2.93;;;2.20;;
56102;SDS011;41970;48.774;9.280;2023-07-20T10:06:15;3.70;;;2.20;;
56102;SDS011;41970;48.774;9.280;2023-07-20T10:08:45;2.47;;;2.00;;
56102;SDS011;41970;48.774;9.280;2023-07-20T10:11:14;2.07;;;1.70;;
56102;SDS011;41970;48.774;9.280;2023-07-20T10:13:41;4.63;;;1.80;;
56102;SDS011;41970;48.774;9.280;2023-07-20T10:16:10;2.50;;;1.93;;
56102;SDS011;41970;48.774;9.280;2023-07-20T10:21:19;2.67;;;2.30;;
56102;SDS011;41970;48.774;9.280;2023-07-20T10:23:49;1.90;;;1.80;;
56102;SDS011;41970;48.774;9.280;2023-07-20T10:26:15;1.97;;;1.80;;
56102;SDS011;41970;48.774;9.280;2023-07-20T10:28:41;2.67;;;1.77;;
56102;SDS011;41970;48.774;9.280;2023-07-20T10:31:10;2.20;;;2.00;;
56102;SDS011;41970;48.774;9.280;2023-07-20T10:33:38;2.23;;;1.73;;
56102;SDS011;41970;48.774;9.280;2023-07-20T10:36:04;3.17;;;1.70;;
56102;SDS011;41970;48.774;9.280;2023-07-20T10:39:04;4.13;;;2.00;;
56102;SDS011;41970;48.774;9.280;2023-07-20T10:44:03;2.87;;;2.57;;
56102;SDS011;41970;48.774;9.280;2023-07-20T10:49:06;2.30;;;1.70;;
56102;SDS011;41970;48.774;9.280;2023-07-20T10:51:47;1.83;;;1.67;;
56102;SDS011;41970;48.774;9.280;2023-07-20T10:56:48;3.63;;;1.90;;
56102;SDS011;41970;48.774;9.280;2023-07-20T10:59:18;2.20;;;1.53;;
56102;SDS011;41970;48.774;9.280;2023-07-20T11:01:46;3.20;;;1.80;;
56102;SDS011;41970;48.774;9.280;2023-07-20T11:04:14;6.23;;;2.07;;
56102;SDS011;41970;48.774;9.280;2023-07-20T11:06:43;1.87;;;1.67;;
56102;SDS011;41970;48.774;9.280;2023-07-20T11:09:10;2.40;;;1.80;;
56102;SDS011;41970;48.774;9.280;2023-07-20T11:11:41;1.73;;;1.50;;
56102;SDS011;41970;48.774;9.280;2023-07-20T11:14:24;2.43;;;1.87;;
56102;SDS011;41970;48.774;9.280;2023-07-20T11:16:51;1.70;;;1.60;;
56102;SDS011;41970;48.774;9.280;2023-07-20T11:19:22;3.60;;;2.20;;
56102;SDS011;41970;48.774;9.280;2023-07-20T11:21:58;2.30;;;1.50;;
56102;SDS011;41970;48.774;9.280;2023-07-20T11:24:24;2.57;;;1.77;;
56102;SDS011;41970;48.774;9.280;2023-07-20T11:26:50;4.53;;;2.00;;
56102;SDS011;41970;48.774;9.280;2023-07-20T11:29:18;2.30;;;2.10;;
56102;SDS011;41970;48.774;9.280;2023-07-20T11:31:46;1.83;;;1.50;;
56102;SDS011;41970;48.774;9.280;2023-07-20T11:34:16;2.27;;;1.60;;
56102;SDS011;41970;48.774;9.280;2023-07-20T11:36:52;2.63;;;1.90;;
56102;SDS011;41970;48.774;9.280;2023-07-20T11:39:18;1.60;;;1.50;;
56102;SDS011;41970;48.774;9.280;2023-07-20T11:41:48;1.67;;;1.57;;
56102;SDS011;41970;48.774;9.280;2023-07-20T11:44:22;3.23;;;1.70;;
56102;SDS011;41970;48.774;9.280;2023-07-20T11:46:59;1.73;;;1.53;;
56102;SDS011;41970;48.774;9.280;2023-07-20T11:49:36;2.10;;;1.80;;
56102;SDS011;41970;48.774;9.280;2023-07-20T11:52:03;1.93;;;1.67;;
56102;SDS011;41970;48.774;9.280;2023-07-20T11:54:39;1.93;;;1.67;;
56102;SDS011;41970;48.774;9.280;2023-07-20T11:57:06;2.00;;;1.70;;
56102;SDS011;41970;48.774;9.280;2023-07-20T11:59:32;2.67;;;2.17;;
56102;SDS011;41970;48.774;9.280;2023-07-20T12:02:00;4.40;;;2.33;;
56102;SDS011;41970;48.774;9.280;2023-07-20T12:04:28;2.37;;;1.53;;
56102;SDS011;41970;48.774;9.280;2023-07-20T12:06:54;2.00;;;1.73;;
56102;SDS011;41970;48.774;9.280;2023-07-20T12:09:22;1.60;;;1.50;;
56102;SDS011;41970;48.774;9.280;2023-07-20T12:11:49;1.90;;;1.70;;
56102;SDS011;41970;48.774;9.280;2023-07-20T12:14:15;1.90;;;1.80;;
56102;SDS011;41970;48.774;9.280;2023-07-20T12:16:42;2.70;;;1.53;;
56102;SDS011;41970;48.774;9.280;2023-07-20T12:19:09;1.73;;;1.63;;
56102;SDS011;41970;48.774;9.280;2023-07-20T12:21:37;1.60;;;1.50;;
56102;SDS011;41970;48.774;9.280;2023-07-20T12:24:05;3.97;;;1.90;;
56102;SDS011;41970;48.774;9.280;2023-07-20T12:26:32;2.10;;;1.90;;
56102;SDS011;41970;48.774;9.280;2023-07-20T12:28:59;1.60;;;1.50;;
56102;SDS011;41970;48.774;9.280;2023-07-20T12:31:25;1.60;;;1.50;;
56102;SDS011;41970;48.774;9.280;2023-07-20T12:33:52;3.03;;;1.47;;
56102;SDS011;41970;48.774;9.280;2023-07-20T12:36:20;2.73;;;1.73;;
56102;SDS011;41970;48.774;9.280;2023-07-20T12:38:46;1.80;;;1.27;;
56102;SDS011;41970;48.774;9.280;2023-07-20T12:41:12;1.40;;;1.30;;
56102;SDS011;41970;48.774;9.280;2023-07-20T12:43:42;2.03;;;1.60;;
56102;SDS011;41970;48.774;9.280;2023-07-20T12:46:09;3.00;;;1.70;;
56102;SDS011;41970;48.774;9.280;2023-07-20T12:48:39;2.47;;;1.63;;
56102;SDS011;41970;48.774;9.280;2023-07-20T12:51:07;3.13;;;1.37;;
56102;SDS011;41970;48.774;9.280;2023-07-20T12:53:33;2.23;;;1.90;;
56102;SDS011;41970;48.774;9.280;2023-07-20T12:55:59;1.60;;;1.37;;
56102;SDS011;41970;48.774;9.280;2023-07-20T12:58:26;2.23;;;1.30;;
56102;SDS011;41970;48.774;9.280;2023-07-20T13:00:52;2.00;;;1.60;;
56102;SDS011;41970;48.774;9.280;2023-07-20T13:03:18;3.10;;;1.30;;
56102;SDS011;41970;48.774;9.280;2023-07-20T13:05:44;1.67;;;1.57;;
56102;SDS011;41970;48.774;9.280;2023-07-20T13:08:11;1.63;;;1.33;;
56102;SDS011;41970;48.774;9.280;2023-07-20T13:10:36;3.47;;;1.87;;
56102;SDS011;41970;48.774;9.280;2023-07-20T13:13:03;3.07;;;1.90;;
56102;SDS011;41970;48.774;9.280;2023-07-20T13:15:30;2.17;;;1.97;;
56102;SDS011;41970;48.774;9.280;2023-07-20T13:17:57;2.27;;;1.50;;
56102;SDS011;41970;48.774;9.280;2023-07-20T13:20:24;4.50;;;2.00;;
56102;SDS011;41970;48.774;9.280;2023-07-20T13:22:50;3.60;;;1.57;;
56102;SDS011;41970;48.774;9.280;2023-07-20T13:25:17;3.77;;;1.60;;
56102;SDS011;41970;48.774;9.280;2023-07-20T13:27:43;3.00;;;1.97;;
56102;SDS011;41970;48.774;9.280;2023-07-20T13:30:09;9.17;;;1.60;;
56102;SDS011;41970;48.774;9.280;2023-07-20T13:32:41;2.40;;;1.70;;
56102;SDS011;41970;48.774;9.280;2023-07-20T13:35:13;1.53;;;1.43;;
56102;SDS011;41970;48.774;9.280;2023-07-20T13:37:39;2.00;;;1.43;;
56102;SDS011;41970;48.774;9.280;2023-07-20T13:40:06;1.93;;;1.67;;
56102;SDS011;41970;48.774;9.280;2023-07-20T13:42:33;2.77;;;1.93;;
56102;SDS011;41970;48.774;9.280;2023-07-20T13:44:59;1.77;;;1.67;;
56102;SDS011;41970;48.774;9.280;2023-07-20T13:47:26;4.23;;;1.67;;
56102;SDS011;41970;48.774;9.280;2023-07-20T13:49:52;2.40;;;1.70;;
56102;SDS011;41970;48.774;9.280;2023-07-20T13:52:17;2.07;;;1.77;;
56102;SDS011;41970;48.774;9.280;2023-07-20T13:54:43;1.73;;;1.60;;
56102;SDS011;41970;48.774;9.280;2023-07-20T13:57:09;2.37;;;1.70;;
56102;SDS011;41970;48.774;9.280;2023-07-20T13:59:35;4.00;;;1.87;;
56102;SDS011;41970;48.774;9.280;2023-07-20T14:02:01;1.43;;;1.30;;
56102;SDS011;41970;48.774;9.280;2023-07-20T14:04:26;2.60;;;2.30;;
56102;SDS011;41970;48.774;9.280;2023-07-20T14:06:52;1.63;;;1.40;;
56102;SDS011;41970;48.774;9.280;2023-07-20T14:09:18;1.77;;;1.63;;
56102;SDS011;41970;48.774;9.280;2023-07-20T14:11:44;2.20;;;1.50;;
56102;SDS011;41970;48.774;9.280;2023-07-20T14:14:09;1.60;;;1.50;;
56102;SDS011;41970;48.774;9.280;2023-07-20T14:16:36;2.20;;;1.23;;
56102;SDS011;41970;48.774;9.280;2023-07-20T14:19:02;2.43;;;1.57;;
56102;SDS011;41970;48.774;9.280;2023-07-20T14:21:30;1.77;;;1.60;;
56102;SDS011;41970;48.774;9.280;2023-07-20T14:23:56;3.73;;;1.87;;
56102;SDS011;41970;48.774;9.280;2023-07-20T14:26:23;2.30;;;1.63;;
56102;SDS011;41970;48.774;9.280;2023-07-20T14:28:48;3.60;;;1.70;;
56102;SDS011;41970;48.774;9.280;2023-07-20T14:31:15;3.03;;;1.60;;
56102;SDS011;41970;48.774;9.280;2023-07-20T14:33:40;2.67;;;1.73;;
56102;SDS011;41970;48.774;9.280;2023-07-20T14:36:06;2.00;;;1.60;;
56102;SDS011;41970;48.774;9.280;2023-07-20T14:38:33;1.77;;;1.40;;
56102;SDS011;41970;48.774;9.280;2023-07-20T14:40:59;1.77;;;1.67;;
56102;SDS011;41970;48.774;9.280;2023-07-20T14:43:25;1.40;;;1.30;;
56102;SDS011;41970;48.774;9.280;2023-07-20T14:45:50;1.87;;;1.50;;
56102;SDS011;41970;48.774;9.280;2023-07-20T14:48:16;2.43;;;1.87;;
56102;SDS011;41970;48.774;9.280;2023-07-20T14:50:42;2.90;;;1.60;;
56102;SDS011;41970;48.774;9.280;2023-07-20T14:53:11;2.40;;;1.60;;
56102;SDS011;41970;48.774;9.280;2023-07-20T14:55:37;1.53;;;1.43;;
56102;SDS011;41970;48.774;9.280;2023-07-20T14:58:03;1.60;;;1.30;;
56102;SDS011;41970;48.774;9.280;2023-07-20T15:00:29;2.10;;;1.57;;
56102;SDS011;41970;48.774;9.280;2023-07-20T15:02:55;2.30;;;1.60;;
56102;SDS011;41970;48.774;9.280;2023-07-20T15:05:22;3.03;;;1.50;;